Troyes, Troyes – Barberey Airport (LFQB)

NameTroyes – Barberey Airport
CityTroyes
CountryFrance
ICAOLFQB
IATAQYR
Altitude36 m
CoordinatesGoogle Map
Live Air TrafficLiveATC.net
METARLFQB 141100Z AUTO 08004KT CAVOK 09/08 Q1026
2018-11-14 11:00:00 Wind: East-Northeast (80°) 2.06 m/s - Visibility: > 10000 m - Weather: CAVOK - Temperature: 9 °C - Dew point: 8 °C - Humidity: 93.5% - Pressure: 1026 hPa
Statistics

The table below shows the detailed information of all flights to/from Troyes, Troyes – Barberey Airport (LFQB).